Strona główna
METAR-TAF:

METAR-TAF

Lotnisko :

Heiðrún

Heidrun, Norwegia

Szerokość geograficzna: 65-19-30N, Długość geograficzna: 007-19-36E, wysokość: 0 m

Aktualna obserwacja pogody

Raport powstał 31 minut temu, godzina 00:50 UTC
Wiatr 10 kt od zachodnio-północny zachód
Temperatura -1°C
Wilgotność 50%
Ciśnienie 1020 hPa
Widzialność 10 km lub więcej
Przerywane chmury na wysokości 4500 ft

METAR: ENHE 050050Z 29010KT 9999 BKN045 M01/M10 Q1020 W///S4

czas: 03:21 (01:21 UTC)

Prognoza

Raport powstał 18 minut temu, godzina 01:03 UTC
Prognoza ważna od 05 godzina 01 UTC do 05 godzina 09 UTC
Wiatr 8 kt od północny zachód
Widzialność 10 km lub więcej
Rozproszone chmury na wysokości 3000 ft
Stopniowe zmiany
od 05 godzina 04 UTC do 05 godzina 06 UTC
Wiatr 15 kt od południowy wschód
Stopniowe zmiany
od 05 godzina 07 UTC do 05 godzina 09 UTC
Wiatr 25 kt od południowy wschód

TAF: ENHE 050103Z 0501/0509 32008KT 9999 SCT030 BECMG 0504/0506 13015KT BECMG 0507/0509 13025KT

Obserwacja i prognoza pogody dla ponad 4000 lotnisk (raport METAR i TAF).

Dostępne stacje oznaczono żółtymi i czerwonymi punktami na mapie.

Najedź kursorem aby zobaczyć nazwę stacji.

Kliknij aby zobaczyć obserwacje i prognozy pogody.

Aby zmienić mapę: kliknij na zielony przycisk z czarnym krzyżykiem, aby powiększyć; na zielony przycisk z myślnikiem, aby pomniejszyć; na zielone strzałki, aby przejść do map sąsiednich.


METAR-TAF: